Time;durP1;ratioP1;P1;durP2;ratioP2;P2;SDS_P1;SDS_P2;PMS_P1;PMS_P2;Temp;Humidity;BMP_temperature;BMP_pressure;BME280_temperature;BME280_humidity;BME280_pressure;Samples;Min_cycle;Max_cycle;Signal;HPM_P1;HPM_P2
2023/10/13 00:02:07;;;;;;;21.67;7.10;;;16.60;99.90;;;;;;5047927;28;20120;-74
2023/10/13 00:04:35;;;;;;;18.15;5.85;;;16.60;99.90;;;;;;5047889;28;20106;-74
2023/10/13 00:07:02;;;;;;;16.83;6.13;;;16.60;99.90;;;;;;5030262;28;20759;-73
2023/10/13 00:09:37;;;;;;;14.20;6.50;;;16.60;99.90;;;;;;5030368;28;20116;-73
2023/10/13 00:12:09;;;;;;;17.73;6.18;;;16.60;99.90;;;;;;5047377;28;20048;-73
2023/10/13 00:14:34;;;;;;;16.95;7.32;;;16.60;99.90;;;;;;5029685;28;20052;-73
2023/10/13 00:17:04;;;;;;;12.68;5.63;;;16.60;99.90;;;;;;5047103;28;20041;-73
2023/10/13 00:19:46;;;;;;;25.92;7.85;;;16.60;99.90;;;;;;5030370;28;20424;-73
2023/10/13 00:22:15;;;;;;;24.23;6.68;;;16.60;99.90;;;;;;5029474;28;20093;-73
2023/10/13 00:24:42;;;;;;;19.58;7.80;;;16.60;99.90;;;;;;5046345;28;20076;-73
2023/10/13 00:30:14;;;;;;;19.45;7.25;;;16.60;99.90;;;;;;5043117;28;20036;-72
2023/10/13 00:32:40;;;;;;;24.70;7.13;;;16.60;99.90;;;;;;5044955;28;20116;-72
2023/10/13 00:35:06;;;;;;;20.98;7.50;;;16.60;99.90;;;;;;5029754;28;20063;-72
2023/10/13 00:37:41;;;;;;;19.95;7.30;;;16.60;99.90;;;;;;5047290;28;20434;-72
2023/10/13 00:40:17;;;;;;;19.10;7.20;;;16.60;99.90;;;;;;5047804;28;20560;-72
2023/10/13 00:42:52;;;;;;;21.35;7.88;;;16.50;99.90;;;;;;5047031;28;20024;-73
2023/10/13 00:45:17;;;;;;;17.77;7.50;;;16.50;99.90;;;;;;5047804;28;20045;-73
2023/10/13 00:47:56;;;;;;;20.70;8.35;;;16.60;99.90;;;;;;5047237;28;20052;-73
2023/10/13 00:50:23;;;;;;;14.88;6.47;;;16.60;99.90;;;;;;5044087;28;20064;-73
2023/10/13 00:52:53;;;;;;;16.73;6.88;;;16.60;99.90;;;;;;5028446;28;20482;-73
2023/10/13 00:55:22;;;;;;;17.02;6.43;;;16.60;99.90;;;;;;5047750;28;20041;-73
2023/10/13 00:57:57;;;;;;;24.03;6.57;;;16.60;99.90;;;;;;5028950;28;20029;-73
2023/10/13 01:00:28;;;;;;;22.25;7.38;;;16.60;99.90;;;;;;5026219;28;20033;-72
2023/10/13 01:02:56;;;;;;;20.42;7.47;;;16.60;99.90;;;;;;5024766;28;20048;-72
2023/10/13 01:05:25;;;;;;;16.40;6.50;;;16.60;99.90;;;;;;5029368;28;20033;-73
2023/10/13 01:07:58;;;;;;;14.32;6.43;;;16.60;99.90;;;;;;5038333;28;20131;-72
2023/10/13 01:10:27;;;;;;;15.50;6.07;;;16.60;99.90;;;;;;5025881;28;20036;-71
2023/10/13 01:12:54;;;;;;;16.27;6.88;;;16.60;99.90;;;;;;5046012;28;20056;-72
2023/10/13 01:15:29;;;;;;;17.20;6.55;;;16.60;99.90;;;;;;5025220;28;20080;-74
2023/10/13 01:18:10;;;;;;;14.50;6.22;;;16.60;99.90;;;;;;5021751;28;20118;-71
2023/10/13 01:20:43;;;;;;;15.65;6.47;;;16.60;99.90;;;;;;5046555;28;20037;-73
2023/10/13 01:23:18;;;;;;;15.07;6.75;;;16.60;99.90;;;;;;5028276;28;20056;-72
2023/10/13 01:25:44;;;;;;;17.85;6.00;;;16.60;99.90;;;;;;5046261;28;20039;-72
2023/10/13 01:28:10;;;;;;;14.32;7.25;;;16.60;99.90;;;;;;5046473;28;20112;-72
2023/10/13 01:30:38;;;;;;;14.80;6.68;;;16.60;99.90;;;;;;5028365;28;20167;-72
2023/10/13 01:33:04;;;;;;;18.42;6.43;;;16.50;99.90;;;;;;5045837;28;20132;-72
2023/10/13 01:35:37;;;;;;;18.77;5.78;;;16.60;99.90;;;;;;5046661;28;20112;-73
2023/10/13 01:38:02;;;;;;;13.20;6.20;;;16.60;99.90;;;;;;5028357;28;20044;-70
2023/10/13 01:40:33;;;;;;;15.45;6.18;;;16.50;99.90;;;;;;5029015;28;20032;-71
2023/10/13 01:42:59;;;;;;;17.02;5.90;;;16.50;99.90;;;;;;5027975;28;20048;-72
2023/10/13 01:45:28;;;;;;;17.10;5.78;;;16.50;99.90;;;;;;5028569;28;20037;-71
2023/10/13 01:47:54;;;;;;;14.30;5.90;;;16.50;99.90;;;;;;5027076;28;20029;-73
2023/10/13 01:50:30;;;;;;;15.25;5.53;;;16.50;99.90;;;;;;5046847;28;20697;-73
2023/10/13 01:53:11;;;;;;;15.60;5.30;;;16.50;99.90;;;;;;5015522;28;20040;-73
2023/10/13 01:55:42;;;;;;;11.75;4.13;;;16.50;99.90;;;;;;5028129;28;20040;-73
2023/10/13 01:58:15;;;;;;;14.43;5.35;;;16.50;99.90;;;;;;5046227;28;20485;-73
2023/10/13 02:00:42;;;;;;;10.68;4.03;;;16.50;99.90;;;;;;5028151;28;20404;-73
2023/10/13 02:03:14;;;;;;;12.85;5.15;;;16.50;99.90;;;;;;5027798;28;20475;-73
2023/10/13 02:05:46;;;;;;;10.90;4.30;;;16.50;99.90;;;;;;5027918;28;20029;-73
2023/10/13 02:08:17;;;;;;;10.10;4.80;;;16.50;99.90;;;;;;5046348;28;20067;-73
2023/10/13 02:10:44;;;;;;;12.88;4.25;;;16.50;99.90;;;;;;5027864;28;20036;-73
2023/10/13 02:13:17;;;;;;;15.35;4.40;;;16.50;99.90;;;;;;5045193;28;20083;-73
2023/10/13 02:15:48;;;;;;;11.45;4.47;;;16.50;99.90;;;;;;5045198;28;20040;-72
2023/10/13 02:18:27;;;;;;;15.55;5.57;;;16.50;99.90;;;;;;5027776;28;20090;-72
2023/10/13 02:21:04;;;;;;;14.83;4.63;;;16.50;99.90;;;;;;5041965;28;20036;-73
2023/10/13 02:23:30;;;;;;;9.18;3.88;;;16.50;99.90;;;;;;5045961;28;20488;-73
2023/10/13 02:26:11;;;;;;;12.40;4.00;;;16.50;99.90;;;;;;5027277;28;20056;-73
2023/10/13 02:28:37;;;;;;;13.73;4.68;;;16.50;99.90;;;;;;5027184;28;20037;-73
2023/10/13 02:31:04;;;;;;;10.27;4.60;;;16.50;99.90;;;;;;5027273;28;20033;-73
2023/10/13 02:33:30;;;;;;;13.20;4.88;;;16.50;99.90;;;;;;5027109;28;20397;-73
2023/10/13 02:36:04;;;;;;;11.43;4.03;;;16.50;99.90;;;;;;5027004;28;20041;-71
2023/10/13 02:41:25;;;;;;;13.10;4.20;;;16.50;99.90;;;;;;5044982;28;20107;-73
2023/10/13 02:43:51;;;;;;;8.65;4.43;;;16.50;99.90;;;;;;5041700;28;20135;-73
2023/10/13 02:46:17;;;;;;;11.18;4.55;;;16.50;99.90;;;;;;5045349;28;20115;-72
2023/10/13 02:48:45;;;;;;;13.38;4.90;;;16.50;99.90;;;;;;5044297;28;20045;-73
2023/10/13 02:51:18;;;;;;;18.88;4.95;;;16.40;99.90;;;;;;5045129;28;20069;-73
2023/10/13 02:53:48;;;;;;;13.85;5.07;;;16.40;99.90;;;;;;5026767;28;20095;-72
2023/10/13 02:56:20;;;;;;;17.73;5.38;;;16.40;99.90;;;;;;5045310;28;20485;-71
2023/10/13 02:59:14;;;;;;;15.77;5.07;;;16.40;99.90;;;;;;5027233;28;20501;-72
2023/10/13 03:01:38;;;;;;;18.48;6.40;;;16.40;99.90;;;;;;5043139;28;20048;-71
2023/10/13 03:04:08;;;;;;;13.90;5.57;;;16.40;99.90;;;;;;5044902;28;20029;-70
2023/10/13 03:06:35;;;;;;;14.77;5.35;;;16.40;99.90;;;;;;5026942;28;20082;-70
2023/10/13 03:09:17;;;;;;;13.13;5.30;;;16.40;99.90;;;;;;5042512;28;20040;-71
2023/10/13 03:11:50;;;;;;;14.52;5.20;;;16.40;99.90;;;;;;5041911;28;20172;-72
2023/10/13 03:14:24;;;;;;;18.50;5.78;;;16.40;99.90;;;;;;5047021;28;20029;-72
2023/10/13 03:16:51;;;;;;;16.45;5.05;;;16.40;99.90;;;;;;5023269;28;20471;-71
2023/10/13 03:19:19;;;;;;;18.15;5.70;;;16.40;99.90;;;;;;5027313;28;20031;-72
2023/10/13 03:21:53;;;;;;;15.18;5.28;;;16.40;99.90;;;;;;5026692;28;20711;-71
2023/10/13 03:24:22;;;;;;;14.10;4.88;;;16.40;99.90;;;;;;5024067;28;20056;-71
2023/10/13 03:26:52;;;;;;;14.77;5.10;;;16.30;99.90;;;;;;5026260;28;20032;-71
2023/10/13 03:29:21;;;;;;;17.17;5.25;;;16.40;99.90;;;;;;5027439;28;20136;-71
2023/10/13 03:32:03;;;;;;;19.83;4.97;;;16.40;99.90;;;;;;5043948;28;20083;-72
2023/10/13 03:34:29;;;;;;;15.30;4.88;;;16.40;99.90;;;;;;5027113;28;20033;-72
2023/10/13 03:36:57;;;;;;;17.20;5.32;;;16.40;99.90;;;;;;5043935;28;20124;-73
2023/10/13 03:39:32;;;;;;;13.23;5.07;;;16.30;99.90;;;;;;5027647;28;20128;-72
2023/10/13 03:41:58;;;;;;;15.85;5.13;;;16.40;99.90;;;;;;5026298;28;20077;-72
2023/10/13 03:44:29;;;;;;;18.85;5.40;;;16.40;99.90;;;;;;5027279;28;20508;-72
2023/10/13 03:46:55;;;;;;;12.98;4.55;;;16.30;99.90;;;;;;5025836;28;20049;-72
2023/10/13 03:49:21;;;;;;;17.20;5.80;;;16.30;99.90;;;;;;5044711;28;20150;-72
2023/10/13 03:51:54;;;;;;;13.13;4.55;;;16.30;99.90;;;;;;5025542;28;20078;-71
2023/10/13 03:54:19;;;;;;;14.68;5.25;;;16.30;99.90;;;;;;5027128;28;20071;-71
2023/10/13 03:56:45;;;;;;;12.05;4.43;;;16.30;99.90;;;;;;5044494;28;20060;-71
2023/10/13 04:02:04;;;;;;;11.52;4.30;;;16.30;99.90;;;;;;5044264;28;20029;-73
2023/10/13 04:17:28;;;;;;;13.43;4.30;;;16.30;99.90;;;;;;5045554;28;20082;-71
2023/10/13 04:39:08;;;;;;;11.85;4.88;;;16.30;99.90;;;;;;5044670;28;20048;-72
2023/10/13 04:41:42;;;;;;;8.18;4.07;;;16.30;99.90;;;;;;5029244;28;20032;-72
2023/10/13 04:49:28;;;;;;;11.40;4.22;;;16.40;99.90;;;;;;5048183;28;20033;-71
2023/10/13 04:55:32;;;;;;;8.55;3.15;;;16.40;99.90;;;;;;5047058;28;20033;-71
2023/10/13 05:51:43;;;;;;;10.02;2.45;;;16.60;99.90;;;;;;5046075;28;20033;-73
2023/10/13 06:29:45;;;;;;;6.75;3.03;;;16.50;99.90;;;;;;5043386;28;20513;-73
2023/10/13 06:32:12;;;;;;;8.43;3.00;;;16.50;99.90;;;;;;5044729;28;20037;-73
2023/10/13 06:34:37;;;;;;;11.00;3.22;;;16.50;99.90;;;;;;5045184;28;20557;-73
2023/10/13 06:39:56;;;;;;;6.88;2.78;;;16.60;99.90;;;;;;5043087;28;20112;-72
2023/10/13 06:42:26;;;;;;;8.80;3.50;;;16.70;99.90;;;;;;5023619;28;20056;-73
2023/10/13 06:44:55;;;;;;;6.80;2.97;;;16.70;99.90;;;;;;5025411;28;20047;-74
2023/10/13 06:47:22;;;;;;;9.70;2.50;;;16.70;99.90;;;;;;5026497;28;20616;-73
2023/10/13 06:49:51;;;;;;;8.95;3.67;;;16.70;99.90;;;;;;5039351;28;20075;-73
2023/10/13 06:52:22;;;;;;;6.95;3.80;;;16.80;99.90;;;;;;5046392;28;20440;-74
2023/10/13 06:54:50;;;;;;;11.13;4.22;;;16.90;99.90;;;;;;5044117;28;20037;-73
2023/10/13 06:57:20;;;;;;;18.10;4.90;;;16.90;99.90;;;;;;5024816;28;20059;-74
2023/10/13 06:59:46;;;;;;;12.38;5.18;;;16.90;99.90;;;;;;5044607;28;20059;-73
2023/10/13 07:02:21;;;;;;;14.25;4.80;;;16.90;99.90;;;;;;5024145;28;20041;-73
2023/10/13 07:04:56;;;;;;;19.35;5.72;;;17.00;99.90;;;;;;5028390;28;20111;-73
2023/10/13 07:07:23;;;;;;;16.67;5.97;;;17.10;99.90;;;;;;5024273;28;20849;-74
2023/10/13 07:09:55;;;;;;;14.65;6.78;;;17.10;99.90;;;;;;5042885;28;20033;-71
2023/10/13 07:12:26;;;;;;;15.02;6.35;;;17.10;99.90;;;;;;5024586;28;20509;-73
2023/10/13 07:14:53;;;;;;;12.90;6.60;;;17.10;99.90;;;;;;5016041;28;21705;-73
2023/10/13 07:17:25;;;;;;;16.25;6.00;;;17.20;99.90;;;;;;5026532;28;20379;-73
2023/10/13 07:19:56;;;;;;;13.40;6.07;;;17.20;99.90;;;;;;5040873;28;20029;-72
2023/10/13 07:22:22;;;;;;;14.18;6.18;;;17.30;99.90;;;;;;5045126;28;20039;-72
2023/10/13 07:24:50;;;;;;;12.90;5.00;;;17.30;99.90;;;;;;5044653;28;20053;-72
2023/10/13 07:27:25;;;;;;;9.73;4.68;;;17.30;99.90;;;;;;5028508;28;20032;-72
2023/10/13 07:30:13;;;;;;;10.55;4.50;;;17.30;99.90;;;;;;5025624;28;20037;-73
2023/10/13 07:32:45;;;;;;;11.30;4.70;;;17.40;99.90;;;;;;5031865;28;20033;-72
2023/10/13 07:35:17;;;;;;;15.90;4.88;;;17.40;99.90;;;;;;5046772;28;20413;-72
2023/10/13 07:37:43;;;;;;;15.68;4.40;;;17.40;99.90;;;;;;5048277;28;20083;-73
2023/10/13 07:40:57;;;;;;;9.02;3.63;;;17.40;99.90;;;;;;5030014;28;20481;-71
2023/10/13 07:43:08;;;;;;;16.98;4.15;;;17.40;99.90;;;;;;5032475;28;20048;-72
2023/10/13 07:45:36;;;;;;;10.70;3.58;;;17.40;99.90;;;;;;5036547;28;20378;-71
2023/10/13 07:48:16;;;;;;;14.20;3.67;;;17.40;99.90;;;;;;5029388;28;20371;-72
2023/10/13 07:50:44;;;;;;;12.27;3.42;;;17.30;99.90;;;;;;5048362;28;20111;-72
2023/10/13 07:53:24;;;;;;;11.98;4.30;;;17.40;99.90;;;;;;5047807;28;20040;-72
2023/10/13 07:55:55;;;;;;;7.70;3.08;;;17.40;99.90;;;;;;5030162;28;20095;-74
2023/10/13 07:58:24;;;;;;;;;;;17.50;99.90;;;;;;5031770;28;20055;-74
2023/10/13 08:00:55;;;;;;;16.67;3.45;;;17.50;99.90;;;;;;5030935;28;19924;-73
2023/10/13 08:03:37;;;;;;;;;;;17.50;99.90;;;;;;5031014;28;20037;-72
2023/10/13 08:06:06;;;;;;;10.88;3.28;;;17.50;99.90;;;;;;5022732;28;21326;-71
2023/10/13 08:08:37;;;;;;;11.35;3.67;;;17.50;99.90;;;;;;5049211;28;20033;-72
2023/10/13 08:11:11;;;;;;;7.03;3.03;;;17.60;99.90;;;;;;5048256;28;20124;-73
2023/10/13 08:13:38;;;;;;;18.80;3.10;;;17.60;99.90;;;;;;5047511;28;20090;-74
2023/10/13 08:16:20;;;;;;;11.05;3.17;;;17.60;99.90;;;;;;5029461;28;20041;-72
2023/10/13 08:18:49;;;;;;;8.90;3.13;;;17.60;99.90;;;;;;5025631;28;20041;-72
2023/10/13 08:21:19;;;;;;;7.70;3.40;;;17.60;99.90;;;;;;5047909;28;20028;-72
2023/10/13 08:48:07;;;;;;;7.30;2.78;;;17.80;99.90;;;;;;5046663;28;20056;-72
2023/10/13 08:50:55;;;;;;;9.48;2.50;;;17.80;99.90;;;;;;5040062;28;20032;-75
2023/10/13 08:56:14;;;;;;;10.43;2.22;;;17.90;99.90;;;;;;5042678;28;20060;-73
2023/10/13 09:04:20;;;;;;;;;;;17.90;99.90;;;;;;5042910;28;20106;-72
2023/10/13 09:09:41;;;;;;;6.60;2.40;;;17.80;99.90;;;;;;5046744;28;20041;-73
2023/10/13 09:12:19;;;;;;;13.57;3.58;;;17.80;99.90;;;;;;5026389;28;20040;-73
2023/10/13 09:15:05;;;;;;;16.88;3.35;;;17.80;99.90;;;;;;5046496;28;20048;-73
2023/10/13 09:17:34;;;;;;;11.63;3.33;;;17.80;99.90;;;;;;5026117;28;20989;-73
2023/10/13 09:20:11;;;;;;;16.13;3.42;;;17.80;99.90;;;;;;5046192;28;20145;-73
2023/10/13 09:22:37;;;;;;;17.45;3.33;;;17.80;99.90;;;;;;5046115;28;20404;-73
2023/10/13 09:25:13;;;;;;;10.93;2.75;;;17.90;99.90;;;;;;5046573;28;20033;-73
2023/10/13 09:27:38;;;;;;;11.98;3.08;;;17.90;99.90;;;;;;5028614;28;20032;-73
2023/10/13 09:30:21;;;;;;;9.70;2.90;;;18.00;99.90;;;;;;5028696;28;20049;-73
2023/10/13 09:32:50;;;;;;;10.50;2.55;;;18.00;99.90;;;;;;5028452;28;20466;-73
2023/10/13 09:35:22;;;;;;;10.40;3.80;;;18.00;99.90;;;;;;5046430;28;20048;-73
2023/10/13 09:37:50;;;;;;;12.23;3.42;;;18.00;99.90;;;;;;5045516;28;20280;-76
2023/10/13 09:43:07;;;;;;;8.82;2.55;;;18.10;99.90;;;;;;5034792;28;20087;-74
2023/10/13 09:45:38;;;;;;;13.13;3.17;;;18.10;99.90;;;;;;5024941;28;20028;-72
2023/10/13 09:48:16;;;;;;;11.00;3.33;;;18.10;99.90;;;;;;5020592;28;20162;-74
2023/10/13 09:50:44;;;;;;;10.30;2.70;;;18.20;99.90;;;;;;5027735;28;20671;-73
2023/10/13 09:53:13;;;;;;;12.75;3.00;;;18.20;99.90;;;;;;5030297;28;20020;-74
2023/10/13 09:55:44;;;;;;;14.00;3.60;;;18.10;99.90;;;;;;5051175;28;20029;-73
2023/10/13 09:58:13;;;;;;;12.65;3.80;;;18.10;99.90;;;;;;5027208;28;20481;-74
2023/10/13 10:00:49;;;;;;;13.50;3.38;;;18.10;99.90;;;;;;5042507;28;20115;-74
2023/10/13 10:06:03;;;;;;;9.00;2.72;;;18.20;99.90;;;;;;4997159;28;20116;-72
2023/10/13 10:08:38;;;;;;;16.42;3.85;;;18.20;99.90;;;;;;5045261;28;20523;-74
2023/10/13 10:11:07;;;;;;;10.07;2.40;;;18.30;99.90;;;;;;5026681;28;20448;-73
2023/10/13 10:13:47;;;;;;;10.85;2.42;;;18.40;99.90;;;;;;5022952;28;20060;-75
2023/10/13 10:16:19;;;;;;;8.43;2.42;;;18.40;99.90;;;;;;5027692;28;20115;-72
2023/10/13 10:18:45;;;;;;;7.85;2.50;;;18.50;99.90;;;;;;5044799;28;20027;-73
2023/10/13 10:21:11;;;;;;;9.23;3.15;;;18.60;99.90;;;;;;5045292;28;20108;-74
2023/10/13 10:23:43;;;;;;;16.30;2.88;;;18.70;99.90;;;;;;5027420;28;20427;-73
2023/10/13 10:26:19;;;;;;;10.98;3.13;;;18.80;99.90;;;;;;5027947;28;22192;-73
2023/10/13 10:28:45;;;;;;;8.23;2.47;;;18.90;99.90;;;;;;5027468;28;20033;-75
2023/10/13 10:31:21;;;;;;;8.07;2.40;;;19.00;99.90;;;;;;5023337;28;20123;-74
2023/10/13 10:33:50;;;;;;;9.50;2.92;;;19.10;99.90;;;;;;5040259;28;20059;-73
2023/10/13 10:36:27;;;;;;;7.63;2.35;;;19.20;99.90;;;;;;5026858;28;20437;-73
2023/10/13 10:38:58;;;;;;;8.00;2.50;;;19.20;99.90;;;;;;5040447;28;20076;-73
2023/10/13 10:44:16;;;;;;;13.00;2.63;;;19.20;99.90;;;;;;5044285;28;20032;-72
2023/10/13 10:46:52;;;;;;;8.02;2.33;;;19.20;99.90;;;;;;5044992;28;20025;-73
2023/10/13 10:49:27;;;;;;;12.43;2.78;;;19.20;99.90;;;;;;5027089;28;20032;-73
2023/10/13 10:52:04;;;;;;;12.63;2.40;;;19.20;99.90;;;;;;5026006;28;20044;-72
2023/10/13 10:54:31;;;;;;;11.23;2.30;;;19.20;99.90;;;;;;5045613;28;20477;-73
2023/10/13 10:57:10;;;;;;;10.10;2.40;;;19.20;99.90;;;;;;5026441;28;20044;-71
2023/10/13 10:59:37;;;;;;;9.32;3.25;;;19.30;99.90;;;;;;5027107;28;20029;-73
2023/10/13 11:02:03;;;;;;;14.75;3.78;;;19.40;99.90;;;;;;5044370;28;20037;-72
2023/10/13 11:04:33;;;;;;;12.73;2.85;;;19.40;99.90;;;;;;5026889;28;20032;-72
2023/10/13 11:06:59;;;;;;;8.93;1.98;;;19.40;99.90;;;;;;5044700;28;20048;-73
2023/10/13 11:09:45;;;;;;;22.75;2.83;;;19.40;99.90;;;;;;5046212;28;20037;-73
2023/10/13 11:12:16;;;;;;;10.10;2.50;;;19.30;99.90;;;;;;5029661;28;20044;-73
2023/10/13 11:14:48;;;;;;;11.82;3.75;;;19.30;99.90;;;;;;5030167;28;20598;-72
2023/10/13 11:17:26;;;;;;;10.15;3.13;;;19.30;99.90;;;;;;5030737;28;20116;-73
2023/10/13 11:19:52;;;;;;;13.45;3.00;;;19.30;99.90;;;;;;5047638;28;20382;-73
2023/10/13 11:22:32;;;;;;;14.07;2.75;;;19.40;99.90;;;;;;5031500;28;20040;-74
2023/10/13 11:24:59;;;;;;;9.75;2.40;;;19.40;99.90;;;;;;5046057;28;20048;-73
2023/10/13 11:27:44;;;;;;;10.68;2.67;;;19.40;99.90;;;;;;5049189;28;20044;-74
2023/10/13 11:30:15;;;;;;;9.77;2.42;;;19.40;99.90;;;;;;5030454;28;20657;-73
2023/10/13 11:32:43;;;;;;;6.30;2.63;;;19.50;99.90;;;;;;5048678;28;20037;-73
2023/10/13 11:35:23;;;;;;;12.30;2.63;;;19.60;99.90;;;;;;5030425;28;20032;-73
2023/10/13 11:37:56;;;;;;;10.50;2.22;;;19.70;99.90;;;;;;5048620;28;20033;-73
2023/10/13 11:40:43;;;;;;;14.65;2.08;;;19.70;99.90;;;;;;5030660;28;20112;-74
2023/10/13 11:43:15;;;;;;;12.90;2.63;;;19.80;99.90;;;;;;5047451;28;20152;-72
2023/10/13 11:48:36;;;;;;;9.10;3.10;;;19.70;99.90;;;;;;5047515;28;20051;-71
2023/10/13 11:51:08;;;;;;;10.68;2.20;;;19.70;99.90;;;;;;5031054;28;20202;-73
2023/10/13 11:53:35;;;;;;;10.65;2.63;;;19.60;99.90;;;;;;5048576;28;20116;-74
2023/10/13 11:56:01;;;;;;;17.27;3.05;;;19.60;99.90;;;;;;5030557;28;20040;-73
2023/10/13 11:58:28;;;;;;;9.05;2.58;;;19.60;99.90;;;;;;5048647;28;20059;-73
2023/10/13 12:01:08;;;;;;;7.68;2.60;;;19.60;99.90;;;;;;5029824;28;20033;-71
2023/10/13 12:06:35;;;;;;;14.57;3.25;;;19.70;99.90;;;;;;5048572;28;21015;-72
2023/10/13 12:11:44;;;;;;;6.28;2.22;;;19.60;99.90;;;;;;5044456;28;20048;-73
2023/10/13 12:14:17;;;;;;;11.23;2.55;;;19.60;99.90;;;;;;5047806;28;20091;-74
2023/10/13 12:16:51;;;;;;;13.40;2.60;;;19.60;99.90;;;;;;5047887;28;20131;-73
2023/10/13 12:19:24;;;;;;;5.43;2.35;;;19.60;99.90;;;;;;5023030;28;20033;-73
2023/10/13 12:21:54;;;;;;;13.77;2.88;;;19.70;99.90;;;;;;5027995;28;20048;-72
2023/10/13 12:27:02;;;;;;;7.07;2.30;;;19.90;99.90;;;;;;5046759;28;20280;-74
2023/10/13 12:29:28;;;;;;;19.20;3.25;;;20.00;99.90;;;;;;5030072;28;20056;-73
2023/10/13 12:32:22;;;;;;;24.63;3.58;;;20.10;99.90;;;;;;5028649;28;20060;-73
2023/10/13 12:51:20;;;;;;;7.60;2.55;;;19.70;99.90;;;;;;5042255;28;20052;-74
2023/10/13 12:53:52;;;;;;;18.48;3.60;;;19.80;99.90;;;;;;5028274;28;20029;-73
2023/10/13 12:56:25;;;;;;;9.23;2.75;;;19.80;99.90;;;;;;5028038;28;20033;-72
2023/10/13 12:58:52;;;;;;;9.45;2.63;;;19.70;99.90;;;;;;5045422;28;20057;-73
2023/10/13 13:01:26;;;;;;;10.40;2.75;;;19.60;99.90;;;;;;5028238;28;20119;-71
2023/10/13 13:03:56;;;;;;;11.98;3.22;;;19.50;99.90;;;;;;5027141;28;20040;-73
2023/10/13 13:06:26;;;;;;;12.70;3.22;;;19.40;99.90;;;;;;5028535;28;20385;-73
2023/10/13 13:09:02;;;;;;;11.82;2.78;;;19.40;99.90;;;;;;5027698;28;20103;-72
2023/10/13 13:11:31;;;;;;;12.73;3.70;;;19.20;99.90;;;;;;5046551;28;20032;-72
2023/10/13 13:13:57;;;;;;;13.77;3.13;;;19.20;99.90;;;;;;5027588;28;20041;-72
2023/10/13 13:16:30;;;;;;;14.18;3.25;;;19.20;99.90;;;;;;5028962;28;20051;-72
2023/10/13 13:18:55;;;;;;;11.98;3.38;;;19.10;99.90;;;;;;5045728;28;20061;-72
2023/10/13 13:21:23;;;;;;;14.57;3.38;;;19.10;99.90;;;;;;5029035;28;20064;-72
2023/10/13 13:23:50;;;;;;;11.02;2.95;;;19.10;99.90;;;;;;5028552;28;20032;-72
2023/10/13 13:26:15;;;;;;;9.65;3.08;;;19.10;99.90;;;;;;5015687;28;20109;-73
2023/10/13 13:28:42;;;;;;;10.02;3.17;;;19.00;99.90;;;;;;5034535;28;20120;-71
2023/10/13 13:31:08;;;;;;;14.63;3.40;;;19.00;99.90;;;;;;5024043;28;20061;-73
2023/10/13 13:33:38;;;;;;;12.80;3.22;;;19.00;99.90;;;;;;5044778;28;20068;-72
2023/10/13 13:36:05;;;;;;;18.13;3.38;;;19.00;99.90;;;;;;5027338;28;20658;-72
2023/10/13 13:38:32;;;;;;;16.33;3.33;;;19.00;99.90;;;;;;5028093;28;20033;-73
2023/10/13 13:40:58;;;;;;;13.48;3.55;;;18.90;99.90;;;;;;5044686;28;20125;-73
2023/10/13 13:46:56;;;;;;;10.70;3.17;;;18.80;99.90;;;;;;4938730;28;20065;-73
2023/10/13 13:49:18;;;;;;;11.00;2.90;;;18.70;99.90;;;;;;5042159;28;20025;-73
2023/10/13 13:51:52;;;;;;;12.50;3.33;;;18.60;99.90;;;;;;5046096;28;20481;-72
2023/10/13 13:54:19;;;;;;;11.35;2.92;;;18.60;99.90;;;;;;5028588;28;20029;-70
2023/10/13 13:56:45;;;;;;;9.40;2.85;;;18.60;99.90;;;;;;5027988;28;20029;-71
2023/10/13 13:59:15;;;;;;;13.48;4.32;;;18.60;99.90;;;;;;5028445;28;20032;-72
2023/10/13 14:01:44;;;;;;;19.77;4.95;;;18.50;99.90;;;;;;5046260;28;20033;-70
2023/10/13 14:04:10;;;;;;;11.68;3.60;;;18.40;99.90;;;;;;5028230;28;20037;-73
2023/10/13 14:06:37;;;;;;;17.90;3.50;;;18.30;99.90;;;;;;5028467;28;20091;-73
2023/10/13 14:09:14;;;;;;;11.38;3.78;;;18.20;99.90;;;;;;5028307;28;20095;-70
2023/10/13 14:16:50;;;;;;;14.05;3.50;;;18.00;99.90;;;;;;5039263;28;20033;-75
2023/10/13 14:19:28;;;;;;;11.77;3.65;;;17.90;99.90;;;;;;5046364;28;20091;-73
2023/10/13 14:21:58;;;;;;;13.65;4.03;;;17.90;99.90;;;;;;5045280;28;20033;-71
2023/10/13 14:24:27;;;;;;;12.70;3.77;;;17.90;99.90;;;;;;5028643;28;20040;-70
2023/10/13 14:26:53;;;;;;;10.50;3.28;;;17.80;99.90;;;;;;5045111;28;20098;-71
2023/10/13 14:29:19;;;;;;;8.23;2.97;;;17.80;99.90;;;;;;5023934;28;20032;-73
2023/10/13 14:31:48;;;;;;;8.50;2.42;;;17.80;99.90;;;;;;5027540;28;20549;-73
2023/10/13 14:34:14;;;;;;;10.77;2.17;;;17.80;99.90;;;;;;5028011;28;20033;-71
2023/10/13 14:36:40;;;;;;;9.82;2.45;;;17.90;99.90;;;;;;5045465;28;20039;-71
2023/10/13 14:39:10;;;;;;;10.18;2.10;;;17.80;99.90;;;;;;5028029;28;20116;-72
2023/10/13 14:41:37;;;;;;;4.53;1.58;;;17.80;99.90;;;;;;5024650;28;20044;-72
2023/10/13 14:44:06;;;;;;;8.18;2.10;;;17.80;99.90;;;;;;5011441;28;20128;-71
2023/10/13 14:46:35;;;;;;;11.45;2.50;;;17.80;99.90;;;;;;5041781;28;20025;-71
2023/10/13 14:49:02;;;;;;;8.63;2.15;;;17.80;99.90;;;;;;5027337;28;20041;-71
2023/10/13 14:51:28;;;;;;;14.50;2.65;;;17.80;99.90;;;;;;5028269;28;20115;-71
2023/10/13 14:53:56;;;;;;;6.32;2.13;;;17.80;99.90;;;;;;5044855;28;20040;-73
2023/10/13 14:56:25;;;;;;;8.18;2.53;;;17.80;99.90;;;;;;5026584;28;20052;-72
2023/10/13 14:58:51;;;;;;;16.58;2.42;;;17.80;99.90;;;;;;5045116;28;20481;-73
2023/10/13 15:01:18;;;;;;;8.25;2.30;;;17.80;99.90;;;;;;5045408;28;20077;-70
2023/10/13 15:03:54;;;;;;;6.75;2.05;;;17.70;99.90;;;;;;5027032;28;20511;-72
2023/10/13 15:06:25;;;;;;;9.07;2.15;;;17.70;99.90;;;;;;5026817;28;20025;-71
2023/10/13 15:08:54;;;;;;;7.30;2.22;;;17.70;99.90;;;;;;5026838;28;20097;-73
2023/10/13 15:11:20;;;;;;;8.77;2.20;;;17.70;99.90;;;;;;5025348;28;20067;-70
2023/10/13 15:13:49;;;;;;;15.68;2.75;;;17.70;99.90;;;;;;5029787;28;20501;-72
2023/10/13 15:16:26;;;;;;;8.80;2.35;;;17.80;99.90;;;;;;5033908;28;20091;-72
2023/10/13 15:18:52;;;;;;;7.22;2.67;;;17.70;99.90;;;;;;5029395;28;20030;-69
2023/10/13 15:21:36;;;;;;;10.13;1.98;;;17.70;99.90;;;;;;5045388;28;20029;-71
2023/10/13 15:24:20;;;;;;;16.95;3.13;;;17.70;99.90;;;;;;5044356;28;20556;-71
2023/10/13 15:26:50;;;;;;;9.40;2.88;;;17.80;99.90;;;;;;5034284;28;20033;-71
2023/10/13 15:29:16;;;;;;;7.45;2.45;;;17.80;99.90;;;;;;5020936;28;20117;-73
2023/10/13 15:31:54;;;;;;;13.05;3.10;;;17.80;99.90;;;;;;5016368;28;20529;-72
2023/10/13 15:34:19;;;;;;;13.45;4.07;;;17.80;99.90;;;;;;5041627;28;20073;-72
2023/10/13 15:36:45;;;;;;;19.70;3.92;;;17.70;99.90;;;;;;5045034;28;20643;-71
2023/10/13 15:39:15;;;;;;;15.85;3.25;;;17.70;99.90;;;;;;5026657;28;20358;-71
2023/10/13 15:41:41;;;;;;;8.45;3.70;;;17.70;99.90;;;;;;5026919;28;20092;-71
2023/10/13 15:44:16;;;;;;;15.02;4.18;;;17.70;99.90;;;;;;5044079;28;20041;-71
2023/10/13 15:46:41;;;;;;;16.08;3.97;;;17.70;99.90;;;;;;5027086;28;20116;-72
2023/10/13 15:49:07;;;;;;;10.57;3.58;;;17.70;99.90;;;;;;5026680;28;20569;-70
2023/10/13 15:51:36;;;;;;;10.18;3.30;;;17.60;99.90;;;;;;5027619;28;20440;-72
2023/10/13 15:54:03;;;;;;;19.43;4.90;;;17.70;99.90;;;;;;5044367;28;20041;-71
2023/10/13 15:56:32;;;;;;;12.60;3.47;;;17.70;99.90;;;;;;5048518;28;20079;-72
2023/10/13 15:59:01;;;;;;;10.02;3.53;;;17.70;99.90;;;;;;5048645;28;20036;-70
2023/10/13 16:01:28;;;;;;;12.95;3.92;;;17.70;99.90;;;;;;5038387;28;20028;-70
2023/10/13 16:03:53;;;;;;;13.52;3.35;;;17.70;99.90;;;;;;5047973;28;20045;-71
2023/10/13 16:06:19;;;;;;;10.68;4.55;;;17.60;99.90;;;;;;5030880;28;20112;-75
2023/10/13 16:08:45;;;;;;;13.68;3.28;;;17.60;99.90;;;;;;5005272;28;20099;-71
2023/10/13 16:11:14;;;;;;;13.30;3.75;;;17.60;99.90;;;;;;5013813;28;20044;-71
2023/10/13 16:13:42;;;;;;;11.17;3.27;;;17.60;99.90;;;;;;5045775;28;20118;-72
2023/10/13 16:16:24;;;;;;;24.00;4.70;;;17.70;99.90;;;;;;5028349;28;20056;-72
2023/10/13 16:18:51;;;;;;;12.27;2.78;;;17.60;99.90;;;;;;5027154;28;20679;-73
2023/10/13 16:21:18;;;;;;;10.13;3.45;;;17.60;99.90;;;;;;5029720;28;20412;-71
2023/10/13 16:23:47;;;;;;;13.48;3.50;;;17.60;99.90;;;;;;5029508;28;20029;-73
2023/10/13 16:26:14;;;;;;;11.48;3.65;;;17.70;99.90;;;;;;5047207;28;20047;-71
2023/10/13 16:28:39;;;;;;;13.43;3.88;;;17.70;99.90;;;;;;5047644;28;20137;-72
2023/10/13 16:31:07;;;;;;;15.38;3.75;;;17.70;99.90;;;;;;5029591;28;20120;-73
2023/10/13 16:33:37;;;;;;;14.82;3.40;;;17.70;99.90;;;;;;5029758;28;20029;-72
2023/10/13 16:36:08;;;;;;;16.58;3.70;;;17.60;99.90;;;;;;5028347;28;20033;-71
2023/10/13 16:38:37;;;;;;;14.00;4.07;;;17.60;99.90;;;;;;5029095;28;20040;-73
2023/10/13 16:41:08;;;;;;;14.02;3.55;;;17.60;99.90;;;;;;5028799;28;20118;-70